sensor_id;sensor_type;location;lat;lon;timestamp;P1;durP1;ratioP1;P2;durP2;ratioP2
9100;SDS011;4586;52.518;13.486;2022-08-19T00:01:47;4.50;;;3.47;;
9100;SDS011;4586;52.518;13.486;2022-08-19T00:05:48;4.85;;;3.65;;
9100;SDS011;4586;52.518;13.486;2022-08-19T00:09:49;4.28;;;3.60;;
9100;SDS011;4586;52.518;13.486;2022-08-19T00:13:50;4.22;;;3.83;;
9100;SDS011;4586;52.518;13.486;2022-08-19T00:17:51;4.03;;;3.28;;
9100;SDS011;4586;52.518;13.486;2022-08-19T00:21:52;4.30;;;3.90;;
9100;SDS011;4586;52.518;13.486;2022-08-19T00:25:53;4.35;;;3.85;;
9100;SDS011;4586;52.518;13.486;2022-08-19T00:29:54;4.80;;;4.03;;
9100;SDS011;4586;52.518;13.486;2022-08-19T00:33:55;5.72;;;4.30;;
9100;SDS011;4586;52.518;13.486;2022-08-19T00:37:56;5.45;;;3.80;;
9100;SDS011;4586;52.518;13.486;2022-08-19T00:41:57;5.13;;;4.07;;
9100;SDS011;4586;52.518;13.486;2022-08-19T00:45:58;4.13;;;3.35;;
9100;SDS011;4586;52.518;13.486;2022-08-19T00:49:59;6.05;;;4.55;;
9100;SDS011;4586;52.518;13.486;2022-08-19T00:54:00;4.15;;;3.60;;
9100;SDS011;4586;52.518;13.486;2022-08-19T00:58:04;4.72;;;4.18;;
9100;SDS011;4586;52.518;13.486;2022-08-19T01:02:07;5.05;;;4.05;;
9100;SDS011;4586;52.518;13.486;2022-08-19T01:06:08;8.02;;;3.78;;
9100;SDS011;4586;52.518;13.486;2022-08-19T01:10:11;5.18;;;3.80;;
9100;SDS011;4586;52.518;13.486;2022-08-19T01:14:12;5.28;;;3.97;;
9100;SDS011;4586;52.518;13.486;2022-08-19T01:18:15;5.95;;;4.07;;
9100;SDS011;4586;52.518;13.486;2022-08-19T01:26:22;5.05;;;3.92;;
9100;SDS011;4586;52.518;13.486;2022-08-19T01:30:25;4.95;;;3.58;;
9100;SDS011;4586;52.518;13.486;2022-08-19T01:34:26;6.45;;;4.45;;
9100;SDS011;4586;52.518;13.486;2022-08-19T01:38:27;7.35;;;4.88;;
9100;SDS011;4586;52.518;13.486;2022-08-19T01:42:28;5.32;;;4.38;;
9100;SDS011;4586;52.518;13.486;2022-08-19T01:46:29;5.93;;;4.55;;
9100;SDS011;4586;52.518;13.486;2022-08-19T01:50:31;6.75;;;4.68;;
9100;SDS011;4586;52.518;13.486;2022-08-19T01:54:32;6.63;;;5.18;;
9100;SDS011;4586;52.518;13.486;2022-08-19T01:58:36;5.47;;;4.45;;
9100;SDS011;4586;52.518;13.486;2022-08-19T02:02:38;4.40;;;3.75;;
9100;SDS011;4586;52.518;13.486;2022-08-19T02:06:39;5.70;;;4.50;;
9100;SDS011;4586;52.518;13.486;2022-08-19T02:10:41;4.80;;;4.22;;
9100;SDS011;4586;52.518;13.486;2022-08-19T02:14:42;5.18;;;4.30;;
9100;SDS011;4586;52.518;13.486;2022-08-19T02:18:43;7.35;;;3.50;;
9100;SDS011;4586;52.518;13.486;2022-08-19T02:22:44;5.35;;;4.32;;
9100;SDS011;4586;52.518;13.486;2022-08-19T02:26:45;5.20;;;4.15;;
9100;SDS011;4586;52.518;13.486;2022-08-19T02:30:47;4.50;;;4.10;;
9100;SDS011;4586;52.518;13.486;2022-08-19T02:34:48;6.75;;;4.32;;
9100;SDS011;4586;52.518;13.486;2022-08-19T02:38:49;5.63;;;3.63;;
9100;SDS011;4586;52.518;13.486;2022-08-19T02:42:50;6.25;;;4.70;;
9100;SDS011;4586;52.518;13.486;2022-08-19T02:46:51;4.80;;;4.10;;
9100;SDS011;4586;52.518;13.486;2022-08-19T02:50:52;4.95;;;3.97;;
9100;SDS011;4586;52.518;13.486;2022-08-19T02:54:53;9.35;;;5.70;;
9100;SDS011;4586;52.518;13.486;2022-08-19T02:58:54;7.05;;;5.45;;
9100;SDS011;4586;52.518;13.486;2022-08-19T03:02:55;5.57;;;4.80;;
9100;SDS011;4586;52.518;13.486;2022-08-19T03:06:56;4.70;;;4.10;;
9100;SDS011;4586;52.518;13.486;2022-08-19T03:10:57;5.50;;;4.30;;
9100;SDS011;4586;52.518;13.486;2022-08-19T03:14:58;5.30;;;4.43;;
9100;SDS011;4586;52.518;13.486;2022-08-19T03:19:00;4.60;;;4.10;;
9100;SDS011;4586;52.518;13.486;2022-08-19T03:23:01;5.65;;;4.75;;
9100;SDS011;4586;52.518;13.486;2022-08-19T03:27:02;4.90;;;4.10;;
9100;SDS011;4586;52.518;13.486;2022-08-19T03:31:07;6.43;;;4.47;;
9100;SDS011;4586;52.518;13.486;2022-08-19T03:35:09;5.32;;;4.28;;
9100;SDS011;4586;52.518;13.486;2022-08-19T03:39:10;5.00;;;3.85;;
9100;SDS011;4586;52.518;13.486;2022-08-19T03:43:11;4.72;;;4.13;;
9100;SDS011;4586;52.518;13.486;2022-08-19T03:47:12;4.63;;;3.72;;
9100;SDS011;4586;52.518;13.486;2022-08-19T03:51:17;4.85;;;4.07;;
9100;SDS011;4586;52.518;13.486;2022-08-19T03:55:18;5.07;;;4.10;;
9100;SDS011;4586;52.518;13.486;2022-08-19T03:59:21;4.95;;;3.78;;
9100;SDS011;4586;52.518;13.486;2022-08-19T04:03:23;5.32;;;4.35;;
9100;SDS011;4586;52.518;13.486;2022-08-19T04:07:24;5.80;;;3.92;;
9100;SDS011;4586;52.518;13.486;2022-08-19T04:11:26;5.38;;;4.07;;
9100;SDS011;4586;52.518;13.486;2022-08-19T04:15:28;6.10;;;4.88;;
9100;SDS011;4586;52.518;13.486;2022-08-19T04:19:29;5.03;;;4.43;;
9100;SDS011;4586;52.518;13.486;2022-08-19T04:23:31;5.18;;;4.53;;
9100;SDS011;4586;52.518;13.486;2022-08-19T04:27:32;5.15;;;4.60;;
9100;SDS011;4586;52.518;13.486;2022-08-19T04:31:33;5.47;;;4.80;;
9100;SDS011;4586;52.518;13.486;2022-08-19T04:35:35;6.65;;;4.80;;
9100;SDS011;4586;52.518;13.486;2022-08-19T04:39:36;4.97;;;4.47;;
9100;SDS011;4586;52.518;13.486;2022-08-19T04:43:37;5.80;;;4.45;;
9100;SDS011;4586;52.518;13.486;2022-08-19T04:47:39;6.88;;;4.70;;
9100;SDS011;4586;52.518;13.486;2022-08-19T04:51:41;4.70;;;4.22;;
9100;SDS011;4586;52.518;13.486;2022-08-19T04:55:42;5.47;;;4.25;;
9100;SDS011;4586;52.518;13.486;2022-08-19T04:59:43;6.15;;;4.80;;
9100;SDS011;4586;52.518;13.486;2022-08-19T05:03:44;6.50;;;4.68;;
9100;SDS011;4586;52.518;13.486;2022-08-19T05:07:45;4.80;;;4.32;;
9100;SDS011;4586;52.518;13.486;2022-08-19T05:11:46;6.13;;;5.10;;
9100;SDS011;4586;52.518;13.486;2022-08-19T05:15:54;5.93;;;4.72;;
9100;SDS011;4586;52.518;13.486;2022-08-19T05:19:55;6.68;;;5.18;;
9100;SDS011;4586;52.518;13.486;2022-08-19T05:23:56;5.85;;;4.75;;
9100;SDS011;4586;52.518;13.486;2022-08-19T05:27:57;4.75;;;4.18;;
9100;SDS011;4586;52.518;13.486;2022-08-19T05:31:58;5.93;;;4.90;;
9100;SDS011;4586;52.518;13.486;2022-08-19T05:36:00;5.68;;;4.80;;
9100;SDS011;4586;52.518;13.486;2022-08-19T05:40:02;5.25;;;4.55;;
9100;SDS011;4586;52.518;13.486;2022-08-19T05:44:04;5.22;;;4.68;;
9100;SDS011;4586;52.518;13.486;2022-08-19T05:48:05;4.93;;;4.10;;
9100;SDS011;4586;52.518;13.486;2022-08-19T05:52:08;5.20;;;4.53;;
9100;SDS011;4586;52.518;13.486;2022-08-19T05:56:10;6.18;;;4.85;;
9100;SDS011;4586;52.518;13.486;2022-08-19T06:00:12;6.13;;;4.68;;
9100;SDS011;4586;52.518;13.486;2022-08-19T06:04:13;6.35;;;4.47;;
9100;SDS011;4586;52.518;13.486;2022-08-19T06:08:14;5.28;;;4.60;;
9100;SDS011;4586;52.518;13.486;2022-08-19T06:12:15;7.53;;;5.22;;
9100;SDS011;4586;52.518;13.486;2022-08-19T06:16:17;6.63;;;4.75;;
9100;SDS011;4586;52.518;13.486;2022-08-19T06:20:18;5.75;;;4.60;;
9100;SDS011;4586;52.518;13.486;2022-08-19T06:24:21;5.47;;;4.32;;
9100;SDS011;4586;52.518;13.486;2022-08-19T06:28:22;8.93;;;5.10;;
9100;SDS011;4586;52.518;13.486;2022-08-19T06:32:23;5.60;;;4.75;;
9100;SDS011;4586;52.518;13.486;2022-08-19T06:36:25;22.23;;;15.13;;
9100;SDS011;4586;52.518;13.486;2022-08-19T06:40:26;6.28;;;5.65;;
9100;SDS011;4586;52.518;13.486;2022-08-19T06:44:28;8.55;;;6.20;;
9100;SDS011;4586;52.518;13.486;2022-08-19T06:48:30;5.18;;;4.50;;
9100;SDS011;4586;52.518;13.486;2022-08-19T06:52:31;7.57;;;5.03;;
9100;SDS011;4586;52.518;13.486;2022-08-19T06:56:33;5.55;;;4.70;;
9100;SDS011;4586;52.518;13.486;2022-08-19T07:00:34;8.30;;;5.47;;
9100;SDS011;4586;52.518;13.486;2022-08-19T07:04:35;8.60;;;6.80;;
9100;SDS011;4586;52.518;13.486;2022-08-19T07:08:37;18.67;;;12.00;;
9100;SDS011;4586;52.518;13.486;2022-08-19T07:12:38;5.50;;;4.40;;
9100;SDS011;4586;52.518;13.486;2022-08-19T07:16:39;6.78;;;6.10;;
9100;SDS011;4586;52.518;13.486;2022-08-19T07:20:40;6.95;;;5.85;;
9100;SDS011;4586;52.518;13.486;2022-08-19T07:24:41;10.57;;;7.50;;
9100;SDS011;4586;52.518;13.486;2022-08-19T07:28:42;9.60;;;6.40;;
9100;SDS011;4586;52.518;13.486;2022-08-19T07:32:44;7.70;;;6.28;;
9100;SDS011;4586;52.518;13.486;2022-08-19T07:36:45;8.70;;;6.50;;
9100;SDS011;4586;52.518;13.486;2022-08-19T07:40:46;7.57;;;6.13;;
9100;SDS011;4586;52.518;13.486;2022-08-19T07:44:47;8.38;;;5.85;;
9100;SDS011;4586;52.518;13.486;2022-08-19T07:48:49;8.32;;;5.45;;
9100;SDS011;4586;52.518;13.486;2022-08-19T07:52:50;7.07;;;5.90;;
9100;SDS011;4586;52.518;13.486;2022-08-19T07:56:51;7.15;;;6.00;;
9100;SDS011;4586;52.518;13.486;2022-08-19T08:00:52;7.40;;;6.13;;
9100;SDS011;4586;52.518;13.486;2022-08-19T08:04:53;8.93;;;6.50;;
9100;SDS011;4586;52.518;13.486;2022-08-19T08:08:54;9.23;;;6.80;;
9100;SDS011;4586;52.518;13.486;2022-08-19T08:12:55;7.80;;;6.70;;
9100;SDS011;4586;52.518;13.486;2022-08-19T08:16:56;8.48;;;6.97;;
9100;SDS011;4586;52.518;13.486;2022-08-19T08:20:57;8.10;;;5.82;;
9100;SDS011;4586;52.518;13.486;2022-08-19T08:25:32;7.47;;;6.00;;
9100;SDS011;4586;52.518;13.486;2022-08-19T08:29:26;9.00;;;5.90;;
9100;SDS011;4586;52.518;13.486;2022-08-19T08:33:28;8.80;;;6.68;;
9100;SDS011;4586;52.518;13.486;2022-08-19T08:37:29;9.98;;;6.68;;
9100;SDS011;4586;52.518;13.486;2022-08-19T08:45:35;7.72;;;6.28;;
9100;SDS011;4586;52.518;13.486;2022-08-19T08:53:44;11.48;;;8.35;;
9100;SDS011;4586;52.518;13.486;2022-08-19T09:01:49;9.60;;;7.38;;
9100;SDS011;4586;52.518;13.486;2022-08-19T09:18:41;7.80;;;6.57;;
9100;SDS011;4586;52.518;13.486;2022-08-19T09:22:43;8.23;;;6.90;;
9100;SDS011;4586;52.518;13.486;2022-08-19T09:26:44;8.45;;;7.10;;
9100;SDS011;4586;52.518;13.486;2022-08-19T09:30:45;9.77;;;7.25;;
9100;SDS011;4586;52.518;13.486;2022-08-19T09:34:46;9.75;;;7.93;;
9100;SDS011;4586;52.518;13.486;2022-08-19T09:38:47;13.00;;;7.85;;
9100;SDS011;4586;52.518;13.486;2022-08-19T09:42:48;7.00;;;6.28;;
9100;SDS011;4586;52.518;13.486;2022-08-19T09:46:49;10.27;;;8.52;;
9100;SDS011;4586;52.518;13.486;2022-08-19T09:50:50;10.02;;;6.22;;
9100;SDS011;4586;52.518;13.486;2022-08-19T09:54:54;9.13;;;7.20;;
9100;SDS011;4586;52.518;13.486;2022-08-19T09:58:55;8.23;;;6.43;;
9100;SDS011;4586;52.518;13.486;2022-08-19T10:02:56;11.52;;;7.90;;
9100;SDS011;4586;52.518;13.486;2022-08-19T10:06:57;9.82;;;7.25;;
9100;SDS011;4586;52.518;13.486;2022-08-19T10:10:58;9.63;;;7.50;;
9100;SDS011;4586;52.518;13.486;2022-08-19T10:14:59;7.57;;;5.95;;
9100;SDS011;4586;52.518;13.486;2022-08-19T10:19:00;9.32;;;6.93;;
9100;SDS011;4586;52.518;13.486;2022-08-19T10:23:02;7.15;;;6.45;;
9100;SDS011;4586;52.518;13.486;2022-08-19T10:27:03;7.75;;;6.18;;
9100;SDS011;4586;52.518;13.486;2022-08-19T10:31:05;8.18;;;6.57;;
9100;SDS011;4586;52.518;13.486;2022-08-19T10:35:06;8.55;;;7.07;;
9100;SDS011;4586;52.518;13.486;2022-08-19T10:39:08;6.70;;;5.63;;
9100;SDS011;4586;52.518;13.486;2022-08-19T10:43:09;8.38;;;6.70;;
9100;SDS011;4586;52.518;13.486;2022-08-19T10:47:10;8.70;;;6.00;;
9100;SDS011;4586;52.518;13.486;2022-08-19T10:51:12;7.13;;;5.43;;
9100;SDS011;4586;52.518;13.486;2022-08-19T10:55:13;7.80;;;6.20;;
9100;SDS011;4586;52.518;13.486;2022-08-19T10:59:14;8.43;;;6.55;;
9100;SDS011;4586;52.518;13.486;2022-08-19T11:03:16;11.23;;;6.75;;
9100;SDS011;4586;52.518;13.486;2022-08-19T11:07:17;6.65;;;5.05;;
9100;SDS011;4586;52.518;13.486;2022-08-19T11:11:18;7.80;;;6.60;;
9100;SDS011;4586;52.518;13.486;2022-08-19T11:15:19;7.95;;;6.13;;
9100;SDS011;4586;52.518;13.486;2022-08-19T11:19:20;5.72;;;5.00;;
9100;SDS011;4586;52.518;13.486;2022-08-19T11:23:21;6.43;;;5.72;;
9100;SDS011;4586;52.518;13.486;2022-08-19T11:27:22;6.13;;;4.95;;
9100;SDS011;4586;52.518;13.486;2022-08-19T11:31:24;8.65;;;6.40;;
9100;SDS011;4586;52.518;13.486;2022-08-19T11:35:26;6.35;;;5.10;;
9100;SDS011;4586;52.518;13.486;2022-08-19T11:39:28;9.20;;;6.15;;
9100;SDS011;4586;52.518;13.486;2022-08-19T11:43:29;7.50;;;5.18;;
9100;SDS011;4586;52.518;13.486;2022-08-19T11:47:30;5.78;;;4.80;;
9100;SDS011;4586;52.518;13.486;2022-08-19T11:51:31;7.40;;;6.50;;
9100;SDS011;4586;52.518;13.486;2022-08-19T11:55:36;6.88;;;5.63;;
9100;SDS011;4586;52.518;13.486;2022-08-19T11:59:37;8.38;;;6.22;;
9100;SDS011;4586;52.518;13.486;2022-08-19T12:03:38;6.50;;;5.60;;
9100;SDS011;4586;52.518;13.486;2022-08-19T12:07:39;9.05;;;5.18;;
9100;SDS011;4586;52.518;13.486;2022-08-19T12:11:40;6.45;;;5.70;;
9100;SDS011;4586;52.518;13.486;2022-08-19T12:15:41;6.95;;;5.40;;
9100;SDS011;4586;52.518;13.486;2022-08-19T12:19:42;6.72;;;5.80;;
9100;SDS011;4586;52.518;13.486;2022-08-19T12:23:43;5.55;;;4.70;;
9100;SDS011;4586;52.518;13.486;2022-08-19T12:27:44;5.38;;;4.60;;
9100;SDS011;4586;52.518;13.486;2022-08-19T12:31:45;6.00;;;4.53;;
9100;SDS011;4586;52.518;13.486;2022-08-19T12:35:46;6.72;;;5.95;;
9100;SDS011;4586;52.518;13.486;2022-08-19T12:39:47;5.57;;;4.43;;
9100;SDS011;4586;52.518;13.486;2022-08-19T12:43:48;7.45;;;6.22;;
9100;SDS011;4586;52.518;13.486;2022-08-19T12:47:49;6.00;;;5.22;;
9100;SDS011;4586;52.518;13.486;2022-08-19T12:51:50;6.78;;;5.03;;
9100;SDS011;4586;52.518;13.486;2022-08-19T12:55:58;5.32;;;4.80;;
9100;SDS011;4586;52.518;13.486;2022-08-19T13:00:00;6.75;;;4.82;;
9100;SDS011;4586;52.518;13.486;2022-08-19T13:04:01;7.70;;;5.50;;
9100;SDS011;4586;52.518;13.486;2022-08-19T13:08:03;5.68;;;4.80;;
9100;SDS011;4586;52.518;13.486;2022-08-19T13:12:04;6.55;;;5.05;;
9100;SDS011;4586;52.518;13.486;2022-08-19T13:16:05;6.28;;;5.53;;
9100;SDS011;4586;52.518;13.486;2022-08-19T13:20:09;7.28;;;4.70;;
9100;SDS011;4586;52.518;13.486;2022-08-19T13:24:11;5.38;;;4.85;;
9100;SDS011;4586;52.518;13.486;2022-08-19T13:28:11;5.90;;;5.30;;
9100;SDS011;4586;52.518;13.486;2022-08-19T13:32:12;5.82;;;4.95;;
9100;SDS011;4586;52.518;13.486;2022-08-19T13:36:13;7.38;;;5.00;;
9100;SDS011;4586;52.518;13.486;2022-08-19T13:40:18;7.82;;;5.97;;
9100;SDS011;4586;52.518;13.486;2022-08-19T13:44:20;7.13;;;4.90;;
9100;SDS011;4586;52.518;13.486;2022-08-19T13:48:21;7.00;;;5.57;;
9100;SDS011;4586;52.518;13.486;2022-08-19T13:52:22;7.80;;;6.18;;
9100;SDS011;4586;52.518;13.486;2022-08-19T13:56:23;6.95;;;5.55;;
9100;SDS011;4586;52.518;13.486;2022-08-19T14:00:25;5.22;;;4.05;;
9100;SDS011;4586;52.518;13.486;2022-08-19T14:04:26;5.47;;;4.70;;
9100;SDS011;4586;52.518;13.486;2022-08-19T14:08:27;6.15;;;4.95;;
9100;SDS011;4586;52.518;13.486;2022-08-19T14:12:28;7.18;;;5.75;;
9100;SDS011;4586;52.518;13.486;2022-08-19T14:16:29;4.90;;;4.40;;
9100;SDS011;4586;52.518;13.486;2022-08-19T14:20:33;5.35;;;4.75;;
9100;SDS011;4586;52.518;13.486;2022-08-19T14:24:34;6.68;;;4.55;;
9100;SDS011;4586;52.518;13.486;2022-08-19T14:28:38;5.63;;;4.97;;
9100;SDS011;4586;52.518;13.486;2022-08-19T14:32:39;8.70;;;6.05;;
9100;SDS011;4586;52.518;13.486;2022-08-19T14:36:40;5.13;;;4.38;;
9100;SDS011;4586;52.518;13.486;2022-08-19T14:40:41;9.98;;;5.70;;
9100;SDS011;4586;52.518;13.486;2022-08-19T14:44:42;8.07;;;5.68;;
9100;SDS011;4586;52.518;13.486;2022-08-19T14:48:43;6.97;;;5.20;;
9100;SDS011;4586;52.518;13.486;2022-08-19T14:52:48;5.47;;;4.95;;
9100;SDS011;4586;52.518;13.486;2022-08-19T14:56:49;5.03;;;4.15;;
9100;SDS011;4586;52.518;13.486;2022-08-19T15:00:50;5.63;;;4.28;;
9100;SDS011;4586;52.518;13.486;2022-08-19T15:04:51;4.90;;;4.35;;
9100;SDS011;4586;52.518;13.486;2022-08-19T15:08:52;5.80;;;4.35;;
9100;SDS011;4586;52.518;13.486;2022-08-19T15:12:53;5.65;;;4.97;;
9100;SDS011;4586;52.518;13.486;2022-08-19T15:16:54;4.38;;;3.85;;
9100;SDS011;4586;52.518;13.486;2022-08-19T15:20:55;6.95;;;5.15;;
9100;SDS011;4586;52.518;13.486;2022-08-19T15:24:56;5.03;;;4.10;;
9100;SDS011;4586;52.518;13.486;2022-08-19T15:28:58;5.45;;;4.60;;
9100;SDS011;4586;52.518;13.486;2022-08-19T15:32:59;4.18;;;3.78;;
9100;SDS011;4586;52.518;13.486;2022-08-19T15:37:00;5.38;;;4.60;;
9100;SDS011;4586;52.518;13.486;2022-08-19T15:41:01;5.00;;;3.95;;
9100;SDS011;4586;52.518;13.486;2022-08-19T15:45:03;5.07;;;4.00;;
9100;SDS011;4586;52.518;13.486;2022-08-19T15:49:05;4.32;;;3.92;;
9100;SDS011;4586;52.518;13.486;2022-08-19T15:53:07;5.28;;;3.40;;
9100;SDS011;4586;52.518;13.486;2022-08-19T15:57:08;5.00;;;4.03;;
9100;SDS011;4586;52.518;13.486;2022-08-19T16:01:09;5.07;;;3.80;;
9100;SDS011;4586;52.518;13.486;2022-08-19T16:05:13;5.60;;;4.13;;
9100;SDS011;4586;52.518;13.486;2022-08-19T16:09:14;5.18;;;4.53;;
9100;SDS011;4586;52.518;13.486;2022-08-19T16:13:16;5.28;;;4.53;;
9100;SDS011;4586;52.518;13.486;2022-08-19T16:17:17;6.53;;;4.50;;
9100;SDS011;4586;52.518;13.486;2022-08-19T16:21:19;5.50;;;4.72;;
9100;SDS011;4586;52.518;13.486;2022-08-19T16:25:20;7.88;;;4.82;;
9100;SDS011;4586;52.518;13.486;2022-08-19T16:29:21;6.22;;;4.50;;
9100;SDS011;4586;52.518;13.486;2022-08-19T16:33:22;4.88;;;4.00;;
9100;SDS011;4586;52.518;13.486;2022-08-19T16:37:23;5.63;;;4.88;;
9100;SDS011;4586;52.518;13.486;2022-08-19T16:41:24;5.13;;;4.13;;
9100;SDS011;4586;52.518;13.486;2022-08-19T16:45:25;7.80;;;4.80;;
9100;SDS011;4586;52.518;13.486;2022-08-19T16:49:27;4.57;;;4.03;;
9100;SDS011;4586;52.518;13.486;2022-08-19T16:53:28;4.72;;;4.28;;
9100;SDS011;4586;52.518;13.486;2022-08-19T16:57:29;5.32;;;4.78;;
9100;SDS011;4586;52.518;13.486;2022-08-19T17:01:30;6.43;;;4.10;;
9100;SDS011;4586;52.518;13.486;2022-08-19T17:05:31;4.68;;;4.15;;
9100;SDS011;4586;52.518;13.486;2022-08-19T17:09:32;4.57;;;4.18;;
9100;SDS011;4586;52.518;13.486;2022-08-19T17:13:33;6.40;;;5.10;;
9100;SDS011;4586;52.518;13.486;2022-08-19T17:17:34;5.22;;;4.50;;
9100;SDS011;4586;52.518;13.486;2022-08-19T17:21:36;5.78;;;4.70;;
9100;SDS011;4586;52.518;13.486;2022-08-19T17:25:37;4.38;;;3.97;;
9100;SDS011;4586;52.518;13.486;2022-08-19T17:29:38;5.00;;;4.03;;
9100;SDS011;4586;52.518;13.486;2022-08-19T17:33:39;4.32;;;3.92;;
9100;SDS011;4586;52.518;13.486;2022-08-19T17:37:40;5.07;;;4.15;;
9100;SDS011;4586;52.518;13.486;2022-08-19T17:41:41;5.40;;;4.47;;
9100;SDS011;4586;52.518;13.486;2022-08-19T17:45:42;5.18;;;4.45;;
9100;SDS011;4586;52.518;13.486;2022-08-19T17:49:43;5.28;;;3.90;;
9100;SDS011;4586;52.518;13.486;2022-08-19T17:53:44;4.97;;;4.10;;
9100;SDS011;4586;52.518;13.486;2022-08-19T17:57:45;5.00;;;3.60;;
9100;SDS011;4586;52.518;13.486;2022-08-19T18:01:46;4.70;;;3.38;;
9100;SDS011;4586;52.518;13.486;2022-08-19T18:05:47;5.65;;;3.95;;
9100;SDS011;4586;52.518;13.486;2022-08-19T18:09:48;3.53;;;2.95;;
9100;SDS011;4586;52.518;13.486;2022-08-19T18:13:50;3.10;;;2.80;;
9100;SDS011;4586;52.518;13.486;2022-08-19T18:17:51;4.03;;;3.55;;
9100;SDS011;4586;52.518;13.486;2022-08-19T18:21:52;4.88;;;3.22;;
9100;SDS011;4586;52.518;13.486;2022-08-19T18:25:53;4.40;;;3.00;;
9100;SDS011;4586;52.518;13.486;2022-08-19T18:29:54;3.97;;;3.20;;
9100;SDS011;4586;52.518;13.486;2022-08-19T18:33:56;5.55;;;3.63;;
9100;SDS011;4586;52.518;13.486;2022-08-19T18:37:58;3.80;;;2.88;;
9100;SDS011;4586;52.518;13.486;2022-08-19T18:41:59;5.45;;;4.05;;
9100;SDS011;4586;52.518;13.486;2022-08-19T18:46:00;4.72;;;3.17;;
9100;SDS011;4586;52.518;13.486;2022-08-19T18:50:01;3.42;;;3.13;;
9100;SDS011;4586;52.518;13.486;2022-08-19T18:54:02;4.20;;;2.88;;
9100;SDS011;4586;52.518;13.486;2022-08-19T18:58:03;3.65;;;2.92;;
9100;SDS011;4586;52.518;13.486;2022-08-19T19:02:04;4.10;;;2.95;;
9100;SDS011;4586;52.518;13.486;2022-08-19T19:06:05;3.55;;;3.20;;
9100;SDS011;4586;52.518;13.486;2022-08-19T19:10:07;4.30;;;3.65;;
9100;SDS011;4586;52.518;13.486;2022-08-19T19:14:09;3.60;;;3.30;;
9100;SDS011;4586;52.518;13.486;2022-08-19T19:18:10;6.07;;;3.25;;
9100;SDS011;4586;52.518;13.486;2022-08-19T19:22:12;4.10;;;3.22;;
9100;SDS011;4586;52.518;13.486;2022-08-19T19:26:14;4.00;;;3.28;;
9100;SDS011;4586;52.518;13.486;2022-08-19T19:30:15;3.50;;;3.10;;
9100;SDS011;4586;52.518;13.486;2022-08-19T19:34:16;3.83;;;3.45;;
9100;SDS011;4586;52.518;13.486;2022-08-19T19:38:17;4.15;;;3.50;;
9100;SDS011;4586;52.518;13.486;2022-08-19T19:42:19;3.50;;;2.80;;
9100;SDS011;4586;52.518;13.486;2022-08-19T19:46:20;4.05;;;3.35;;
9100;SDS011;4586;52.518;13.486;2022-08-19T19:50:21;3.72;;;3.17;;
9100;SDS011;4586;52.518;13.486;2022-08-19T19:54:22;5.35;;;3.20;;
9100;SDS011;4586;52.518;13.486;2022-08-19T19:58:24;3.22;;;2.90;;
9100;SDS011;4586;52.518;13.486;2022-08-19T20:02:25;5.13;;;3.55;;
9100;SDS011;4586;52.518;13.486;2022-08-19T20:06:26;4.03;;;3.50;;
9100;SDS011;4586;52.518;13.486;2022-08-19T20:10:27;5.07;;;3.83;;
9100;SDS011;4586;52.518;13.486;2022-08-19T20:14:30;5.38;;;3.80;;
9100;SDS011;4586;52.518;13.486;2022-08-19T20:18:31;6.57;;;4.35;;
9100;SDS011;4586;52.518;13.486;2022-08-19T20:22:32;6.65;;;4.22;;
9100;SDS011;4586;52.518;13.486;2022-08-19T20:26:33;5.82;;;3.53;;
9100;SDS011;4586;52.518;13.486;2022-08-19T20:30:34;4.00;;;3.13;;
9100;SDS011;4586;52.518;13.486;2022-08-19T20:34:35;4.13;;;3.38;;
9100;SDS011;4586;52.518;13.486;2022-08-19T20:38:36;4.38;;;3.22;;
9100;SDS011;4586;52.518;13.486;2022-08-19T20:42:37;4.43;;;3.60;;
9100;SDS011;4586;52.518;13.486;2022-08-19T20:46:39;4.03;;;3.33;;
9100;SDS011;4586;52.518;13.486;2022-08-19T20:50:40;5.55;;;3.17;;
9100;SDS011;4586;52.518;13.486;2022-08-19T20:54:41;4.07;;;3.65;;
9100;SDS011;4586;52.518;13.486;2022-08-19T20:58:42;3.58;;;2.88;;
9100;SDS011;4586;52.518;13.486;2022-08-19T21:02:43;3.63;;;2.45;;
9100;SDS011;4586;52.518;13.486;2022-08-19T21:06:44;5.78;;;3.60;;
9100;SDS011;4586;52.518;13.486;2022-08-19T21:10:45;3.58;;;3.28;;
9100;SDS011;4586;52.518;13.486;2022-08-19T21:14:46;3.70;;;3.25;;
9100;SDS011;4586;52.518;13.486;2022-08-19T21:18:48;4.05;;;3.53;;
9100;SDS011;4586;52.518;13.486;2022-08-19T21:22:49;4.18;;;3.40;;
9100;SDS011;4586;52.518;13.486;2022-08-19T21:26:49;3.30;;;2.88;;
9100;SDS011;4586;52.518;13.486;2022-08-19T21:30:51;3.40;;;2.70;;
9100;SDS011;4586;52.518;13.486;2022-08-19T21:34:52;3.30;;;3.00;;
9100;SDS011;4586;52.518;13.486;2022-08-19T21:38:53;3.45;;;3.08;;
9100;SDS011;4586;52.518;13.486;2022-08-19T21:42:54;2.88;;;2.35;;
9100;SDS011;4586;52.518;13.486;2022-08-19T21:46:55;3.45;;;2.47;;
9100;SDS011;4586;52.518;13.486;2022-08-19T21:50:56;3.80;;;3.22;;
9100;SDS011;4586;52.518;13.486;2022-08-19T21:54:57;4.22;;;3.08;;
9100;SDS011;4586;52.518;13.486;2022-08-19T21:58:58;4.63;;;3.13;;
9100;SDS011;4586;52.518;13.486;2022-08-19T22:02:59;3.72;;;3.15;;
9100;SDS011;4586;52.518;13.486;2022-08-19T22:07:00;3.20;;;2.90;;
9100;SDS011;4586;52.518;13.486;2022-08-19T22:11:02;4.47;;;3.20;;
9100;SDS011;4586;52.518;13.486;2022-08-19T22:15:04;3.95;;;3.40;;
9100;SDS011;4586;52.518;13.486;2022-08-19T22:19:05;3.33;;;2.78;;
9100;SDS011;4586;52.518;13.486;2022-08-19T22:23:06;3.42;;;3.10;;
9100;SDS011;4586;52.518;13.486;2022-08-19T22:27:07;4.30;;;3.35;;
9100;SDS011;4586;52.518;13.486;2022-08-19T22:31:09;6.15;;;3.38;;
9100;SDS011;4586;52.518;13.486;2022-08-19T22:35:10;3.70;;;3.15;;
9100;SDS011;4586;52.518;13.486;2022-08-19T22:39:11;5.25;;;3.72;;
9100;SDS011;4586;52.518;13.486;2022-08-19T22:43:19;5.13;;;3.92;;
9100;SDS011;4586;52.518;13.486;2022-08-19T22:47:20;4.70;;;3.58;;
9100;SDS011;4586;52.518;13.486;2022-08-19T22:51:21;4.82;;;4.10;;
9100;SDS011;4586;52.518;13.486;2022-08-19T22:55:23;4.32;;;3.80;;
9100;SDS011;4586;52.518;13.486;2022-08-19T22:59:25;5.20;;;4.15;;
9100;SDS011;4586;52.518;13.486;2022-08-19T23:03:26;5.00;;;3.78;;
9100;SDS011;4586;52.518;13.486;2022-08-19T23:07:27;5.30;;;4.05;;
9100;SDS011;4586;52.518;13.486;2022-08-19T23:11:28;6.88;;;4.50;;
9100;SDS011;4586;52.518;13.486;2022-08-19T23:15:30;6.95;;;5.03;;
9100;SDS011;4586;52.518;13.486;2022-08-19T23:19:31;6.75;;;5.22;;
9100;SDS011;4586;52.518;13.486;2022-08-19T23:23:32;6.18;;;4.78;;
9100;SDS011;4586;52.518;13.486;2022-08-19T23:27:33;6.55;;;4.50;;
9100;SDS011;4586;52.518;13.486;2022-08-19T23:31:34;6.90;;;4.53;;
9100;SDS011;4586;52.518;13.486;2022-08-19T23:35:35;7.97;;;4.97;;
9100;SDS011;4586;52.518;13.486;2022-08-19T23:39:37;7.88;;;4.50;;
9100;SDS011;4586;52.518;13.486;2022-08-19T23:43:38;7.15;;;4.57;;
9100;SDS011;4586;52.518;13.486;2022-08-19T23:47:39;6.88;;;4.68;;
9100;SDS011;4586;52.518;13.486;2022-08-19T23:51:40;6.55;;;5.30;;
9100;SDS011;4586;52.518;13.486;2022-08-19T23:55:42;7.40;;;5.25;;
9100;SDS011;4586;52.518;13.486;2022-08-19T23:59:43;6.78;;;5.38;;
